AAL303 KMIA-KJFK
Flight info
| Callsign | AAL303 |
|---|---|
| Flight time | 2h 17m |
| Altitude | 33000 |
| Route | FOLZZ3 ALYRA PELCN Y309 FLRDA SAGGY CHIEZ Q161 KALDA Q108 SIE CAMRN5 |
| Aircraft | A21N/M-VGDW/C |
Departure
| Time | 2026-05-07 18:43 |
|---|---|
| Airport | Miami International Airport (KMIA) |
Arrival
| Time | 2026-05-07 21:01 |
|---|---|
| Airport | John F. Kennedy International Airport (KJFK) |
| Time | Latitude | Longitude | Altitude | Speed | Heading |
|---|---|---|---|---|---|
| 2026-05-07 18:20 | 25.79723 | -80.28210 | 22 ft | 0 kts | 29° |
| 2026-05-07 18:30 | 25.79715 | -80.28214 | 22 ft | 3 kts | 28° |
| 2026-05-07 18:31 | 25.79697 | -80.28224 | 24 ft | 3 kts | 24° |
| 2026-05-07 18:31 | 25.79678 | -80.28233 | 25 ft | 3 kts | 17° |
| 2026-05-07 18:31 | 25.79659 | -80.28237 | 26 ft | 3 kts | 2° |
| 2026-05-07 18:31 | 25.79641 | -80.28235 | 27 ft | 3 kts | 327° |
| 2026-05-07 18:32 | 25.79635 | -80.28230 | 28 ft | 3 kts | 286° |
| 2026-05-07 18:32 | 25.79634 | -80.28221 | 28 ft | 1 kts | 269° |
| 2026-05-07 18:38 | 25.79633 | -80.28235 | 24 ft | 3 kts | 269° |
| 2026-05-07 18:38 | 25.79633 | -80.28267 | 24 ft | 6 kts | 268° |
| 2026-05-07 18:38 | 25.79631 | -80.28330 | 25 ft | 10 kts | 268° |
| 2026-05-07 18:38 | 25.79627 | -80.28423 | 25 ft | 13 kts | 268° |
| 2026-05-07 18:39 | 25.79618 | -80.28531 | 26 ft | 15 kts | 255° |
| 2026-05-07 18:39 | 25.79591 | -80.28648 | 25 ft | 16 kts | 256° |
| 2026-05-07 18:39 | 25.79566 | -80.28769 | 25 ft | 16 kts | 265° |
| 2026-05-07 18:39 | 25.79580 | -80.28895 | 26 ft | 17 kts | 293° |
| 2026-05-07 18:40 | 25.79624 | -80.29019 | 24 ft | 17 kts | 282° |
| 2026-05-07 18:40 | 25.79601 | -80.29147 | 24 ft | 18 kts | 285° |
| 2026-05-07 18:40 | 25.79663 | -80.29274 | 24 ft | 19 kts | 300° |
| 2026-05-07 18:40 | 25.79729 | -80.29405 | 23 ft | 20 kts | 299° |
| 2026-05-07 18:41 | 25.79801 | -80.29546 | 22 ft | 21 kts | 299° |
| 2026-05-07 18:41 | 25.79873 | -80.29688 | 19 ft | 21 kts | 291° |
| 2026-05-07 18:41 | 25.79927 | -80.29823 | 18 ft | 20 kts | 296° |
| 2026-05-07 18:41 | 25.79983 | -80.29965 | 17 ft | 20 kts | 289° |
| 2026-05-07 18:42 | 25.80048 | -80.30103 | 20 ft | 22 kts | 348° |
| 2026-05-07 18:42 | 25.80076 | -80.30010 | 18 ft | 14 kts | 90° |
| 2026-05-07 18:42 | 25.80080 | -80.29896 | 18 ft | 22 kts | 86° |
| 2026-05-07 18:42 | 25.80099 | -80.29432 | 21 ft | 97 kts | 88° |
| 2026-05-07 18:43 | 25.80140 | -80.28462 | 23 ft | 156 kts | 86° |
| 2026-05-07 18:43 | 25.80203 | -80.27160 | 416 ft | 169 kts | 90° |
| 2026-05-07 18:43 | 25.80112 | -80.25861 | 1073 ft | 169 kts | 98° |
| 2026-05-07 18:43 | 25.79817 | -80.24530 | 1464 ft | 188 kts | 115° |
| 2026-05-07 18:44 | 25.79181 | -80.23188 | 1942 ft | 204 kts | 119° |
| 2026-05-07 18:44 | 25.78479 | -80.21707 | 2284 ft | 230 kts | 118° |
| 2026-05-07 18:44 | 25.77713 | -80.20055 | 2711 ft | 250 kts | 118° |
| 2026-05-07 18:44 | 25.76897 | -80.18277 | 3285 ft | 266 kts | 117° |
| 2026-05-07 18:45 | 25.76017 | -80.16438 | 3970 ft | 272 kts | 120° |
| 2026-05-07 18:45 | 25.75096 | -80.14590 | 4685 ft | 276 kts | 119° |
| 2026-05-07 18:45 | 25.74353 | -80.12645 | 5333 ft | 280 kts | 102° |
| 2026-05-07 18:45 | 25.74356 | -80.10501 | 5970 ft | 281 kts | 75° |
| 2026-05-07 18:46 | 25.75211 | -80.08566 | 6588 ft | 281 kts | 52° |
| 2026-05-07 18:46 | 25.76500 | -80.06926 | 7187 ft | 283 kts | 47° |
| 2026-05-07 18:46 | 25.77842 | -80.05315 | 7753 ft | 285 kts | 47° |
| 2026-05-07 18:46 | 25.79184 | -80.03680 | 8326 ft | 287 kts | 48° |
| 2026-05-07 18:47 | 25.80520 | -80.02019 | 8885 ft | 289 kts | 49° |
| 2026-05-07 18:47 | 25.81839 | -80.00364 | 9427 ft | 291 kts | 49° |
| 2026-05-07 18:47 | 25.83179 | -79.98674 | 9951 ft | 293 kts | 49° |
| 2026-05-07 18:47 | 25.84538 | -79.96955 | 10279 ft | 302 kts | 49° |
| 2026-05-07 18:48 | 25.85960 | -79.95148 | 10538 ft | 319 kts | 49° |
| 2026-05-07 18:48 | 25.87461 | -79.93240 | 10862 ft | 336 kts | 49° |
| 2026-05-07 18:48 | 25.89019 | -79.91266 | 11425 ft | 343 kts | 49° |
| 2026-05-07 18:48 | 25.90601 | -79.89263 | 12091 ft | 347 kts | 49° |
| 2026-05-07 18:49 | 25.92197 | -79.87241 | 12771 ft | 350 kts | 48° |
| 2026-05-07 18:49 | 25.93808 | -79.85190 | 13461 ft | 354 kts | 48° |
| 2026-05-07 18:49 | 25.95434 | -79.83116 | 14105 ft | 358 kts | 48° |
| 2026-05-07 18:49 | 25.97076 | -79.81017 | 14690 ft | 362 kts | 48° |
| 2026-05-07 18:50 | 25.98727 | -79.78928 | 15267 ft | 365 kts | 47° |
| 2026-05-07 18:50 | 26.00414 | -79.76791 | 15870 ft | 369 kts | 47° |
| 2026-05-07 18:50 | 26.02115 | -79.74627 | 16474 ft | 373 kts | 47° |
| 2026-05-07 18:50 | 26.03827 | -79.72440 | 17066 ft | 376 kts | 47° |
| 2026-05-07 18:51 | 26.05558 | -79.70232 | 17647 ft | 380 kts | 47° |
| 2026-05-07 18:51 | 26.07305 | -79.68002 | 18232 ft | 383 kts | 47° |
| 2026-05-07 18:51 | 26.09046 | -79.65777 | 18729 ft | 387 kts | 46° |
| 2026-05-07 18:51 | 26.10787 | -79.63464 | 19206 ft | 392 kts | 50° |
| 2026-05-07 18:52 | 26.12394 | -79.60990 | 19677 ft | 397 kts | 52° |
| 2026-05-07 18:52 | 26.13996 | -79.58462 | 20154 ft | 400 kts | 52° |
| 2026-05-07 18:52 | 26.15612 | -79.55908 | 20628 ft | 404 kts | 52° |
| 2026-05-07 18:52 | 26.17236 | -79.53342 | 21095 ft | 408 kts | 52° |
| 2026-05-07 18:53 | 26.18865 | -79.50770 | 21565 ft | 412 kts | 52° |
| 2026-05-07 18:53 | 26.20528 | -79.48148 | 22035 ft | 416 kts | 52° |
| 2026-05-07 18:53 | 26.22210 | -79.45497 | 22502 ft | 420 kts | 52° |
| 2026-05-07 18:53 | 26.23901 | -79.42828 | 22970 ft | 424 kts | 52° |
| 2026-05-07 18:54 | 26.25612 | -79.40124 | 23412 ft | 428 kts | 52° |
| 2026-05-07 18:54 | 26.27342 | -79.37408 | 23811 ft | 431 kts | 50° |
| 2026-05-07 18:54 | 26.29310 | -79.34900 | 24174 ft | 429 kts | 39° |
| 2026-05-07 18:54 | 26.31668 | -79.32880 | 24548 ft | 427 kts | 30° |
| 2026-05-07 18:55 | 26.34178 | -79.31093 | 24938 ft | 429 kts | 28° |
| 2026-05-07 18:55 | 26.36721 | -79.29322 | 25317 ft | 431 kts | 28° |
| 2026-05-07 18:55 | 26.39247 | -79.27550 | 25688 ft | 434 kts | 28° |
| 2026-05-07 18:55 | 26.41811 | -79.25736 | 26059 ft | 437 kts | 28° |
| 2026-05-07 18:56 | 26.44384 | -79.23904 | 26431 ft | 439 kts | 28° |
| 2026-05-07 18:56 | 26.46970 | -79.22059 | 26785 ft | 442 kts | 28° |
| 2026-05-07 18:56 | 26.49569 | -79.20204 | 27136 ft | 444 kts | 28° |
| 2026-05-07 18:56 | 26.52156 | -79.18358 | 27481 ft | 446 kts | 28° |
| 2026-05-07 18:57 | 26.54782 | -79.16481 | 27822 ft | 449 kts | 28° |
| 2026-05-07 18:57 | 26.57420 | -79.14594 | 28149 ft | 451 kts | 28° |
| 2026-05-07 18:57 | 26.60069 | -79.12699 | 28472 ft | 454 kts | 28° |
| 2026-05-07 18:57 | 26.62736 | -79.10790 | 28792 ft | 456 kts | 28° |
| 2026-05-07 18:58 | 26.65412 | -79.08872 | 29107 ft | 458 kts | 28° |
| 2026-05-07 18:58 | 26.68113 | -79.06935 | 29420 ft | 461 kts | 28° |
| 2026-05-07 18:58 | 26.70820 | -79.04992 | 29729 ft | 463 kts | 28° |
| 2026-05-07 18:58 | 26.73541 | -79.03041 | 30037 ft | 465 kts | 28° |
| 2026-05-07 18:59 | 26.76236 | -79.01109 | 30320 ft | 467 kts | 28° |
| 2026-05-07 18:59 | 26.79001 | -78.99124 | 30669 ft | 466 kts | 28° |
| 2026-05-07 18:59 | 26.81702 | -78.97181 | 31042 ft | 465 kts | 28° |
| 2026-05-07 18:59 | 26.84419 | -78.95228 | 31402 ft | 464 kts | 28° |
| 2026-05-07 19:00 | 26.87135 | -78.93274 | 31749 ft | 463 kts | 28° |
| 2026-05-07 19:00 | 26.89850 | -78.91320 | 32120 ft | 462 kts | 28° |
| 2026-05-07 19:00 | 26.92553 | -78.89374 | 32471 ft | 461 kts | 28° |
| 2026-05-07 19:00 | 26.95253 | -78.87429 | 32827 ft | 460 kts | 28° |
| 2026-05-07 19:01 | 26.97948 | -78.85484 | 33049 ft | 461 kts | 28° |
| 2026-05-07 19:01 | 27.03298 | -78.81617 | 33073 ft | 459 kts | 28° |
| 2026-05-07 19:02 | 27.08678 | -78.77735 | 33056 ft | 459 kts | 28° |
| 2026-05-07 19:02 | 27.14054 | -78.73845 | 33056 ft | 459 kts | 28° |
| 2026-05-07 19:03 | 27.19402 | -78.69970 | 33056 ft | 459 kts | 28° |
| 2026-05-07 19:03 | 27.24789 | -78.66065 | 33055 ft | 459 kts | 28° |
| 2026-05-07 19:04 | 27.30506 | -78.63130 | 33051 ft | 446 kts | 7° |
| 2026-05-07 19:04 | 27.36558 | -78.62239 | 33059 ft | 441 kts | 1° |
| 2026-05-07 19:05 | 27.42670 | -78.61504 | 33057 ft | 442 kts | 1° |
| 2026-05-07 19:05 | 27.48796 | -78.60716 | 33052 ft | 442 kts | 1° |
| 2026-05-07 19:06 | 27.54913 | -78.59918 | 33051 ft | 442 kts | 1° |
| 2026-05-07 19:06 | 27.64055 | -78.58729 | 33049 ft | 442 kts | 1° |
| 2026-05-07 19:07 | 27.70171 | -78.57939 | 33050 ft | 442 kts | 1° |
| 2026-05-07 19:07 | 27.76296 | -78.57143 | 33050 ft | 443 kts | 1° |
| 2026-05-07 19:08 | 27.82421 | -78.56345 | 33050 ft | 443 kts | 1° |
| 2026-05-07 19:08 | 27.88551 | -78.55543 | 33054 ft | 443 kts | 1° |
| 2026-05-07 19:09 | 27.94657 | -78.54745 | 33050 ft | 443 kts | 1° |
| 2026-05-07 19:09 | 28.00784 | -78.53940 | 33050 ft | 443 kts | 1° |
| 2026-05-07 19:10 | 28.06913 | -78.53136 | 33047 ft | 443 kts | 1° |
| 2026-05-07 19:10 | 28.13011 | -78.52338 | 33050 ft | 444 kts | 1° |
| 2026-05-07 19:11 | 28.19153 | -78.51531 | 33049 ft | 444 kts | 1° |
| 2026-05-07 19:11 | 28.25298 | -78.50724 | 33052 ft | 444 kts | 1° |
| 2026-05-07 19:12 | 28.31409 | -78.49917 | 33048 ft | 444 kts | 1° |
| 2026-05-07 19:12 | 28.37561 | -78.49104 | 33050 ft | 444 kts | 0° |
| 2026-05-07 19:13 | 28.43704 | -78.48296 | 33052 ft | 444 kts | 0° |
| 2026-05-07 19:13 | 28.49808 | -78.47489 | 33049 ft | 444 kts | 0° |
| 2026-05-07 19:14 | 28.55941 | -78.46677 | 33036 ft | 444 kts | 0° |
| 2026-05-07 19:14 | 28.62078 | -78.45864 | 33040 ft | 444 kts | 0° |
| 2026-05-07 19:15 | 28.68216 | -78.45051 | 33047 ft | 444 kts | 0° |
| 2026-05-07 19:15 | 28.74362 | -78.44232 | 33036 ft | 444 kts | 0° |
| 2026-05-07 19:16 | 28.80491 | -78.43418 | 33037 ft | 444 kts | 0° |
| 2026-05-07 19:16 | 28.86605 | -78.42607 | 33039 ft | 444 kts | 360° |
| 2026-05-07 19:17 | 28.92750 | -78.41787 | 33034 ft | 444 kts | 360° |
| 2026-05-07 19:17 | 28.98903 | -78.40966 | 33031 ft | 444 kts | 360° |
| 2026-05-07 19:18 | 29.05056 | -78.40144 | 33031 ft | 445 kts | 360° |
| 2026-05-07 19:18 | 29.11169 | -78.39327 | 33033 ft | 445 kts | 360° |
| 2026-05-07 19:19 | 29.17330 | -78.38502 | 33030 ft | 445 kts | 359° |
| 2026-05-07 19:19 | 29.23492 | -78.37678 | 33028 ft | 445 kts | 359° |
| 2026-05-07 19:20 | 29.29661 | -78.36850 | 33027 ft | 446 kts | 359° |
| 2026-05-07 19:20 | 29.35794 | -78.36026 | 33023 ft | 446 kts | 359° |
| 2026-05-07 19:21 | 29.41967 | -78.35196 | 33021 ft | 446 kts | 359° |
| 2026-05-07 19:21 | 29.48132 | -78.34410 | 33017 ft | 442 kts | 355° |
| 2026-05-07 19:22 | 29.54180 | -78.34658 | 33020 ft | 435 kts | 349° |
| 2026-05-07 19:22 | 29.59211 | -78.35047 | 33022 ft | 436 kts | 348° |
| 2026-05-07 19:23 | 29.65267 | -78.35504 | 33019 ft | 436 kts | 348° |
| 2026-05-07 19:23 | 29.72309 | -78.36028 | 33016 ft | 436 kts | 348° |
| 2026-05-07 19:24 | 29.77349 | -78.36398 | 33017 ft | 436 kts | 348° |
| 2026-05-07 19:24 | 29.83411 | -78.36853 | 33010 ft | 436 kts | 348° |
| 2026-05-07 19:25 | 29.89465 | -78.37300 | 33013 ft | 436 kts | 348° |
| 2026-05-07 19:25 | 29.95526 | -78.37751 | 33010 ft | 435 kts | 348° |
| 2026-05-07 19:26 | 30.01535 | -78.38198 | 33010 ft | 435 kts | 348° |
| 2026-05-07 19:26 | 30.07588 | -78.38652 | 33006 ft | 435 kts | 348° |
| 2026-05-07 19:27 | 30.13665 | -78.38988 | 32999 ft | 442 kts | 354° |
| 2026-05-07 19:27 | 30.19809 | -78.38202 | 33007 ft | 448 kts | 359° |
| 2026-05-07 19:28 | 30.25983 | -78.37247 | 33000 ft | 447 kts | 359° |
| 2026-05-07 19:28 | 30.32151 | -78.36316 | 33000 ft | 446 kts | 359° |
| 2026-05-07 19:29 | 30.38271 | -78.35398 | 32999 ft | 446 kts | 359° |
| 2026-05-07 19:29 | 30.44422 | -78.34283 | 33000 ft | 450 kts | 2° |
| 2026-05-07 19:30 | 30.50569 | -78.32840 | 32997 ft | 451 kts | 3° |
| 2026-05-07 19:30 | 30.56727 | -78.31397 | 32997 ft | 451 kts | 3° |
| 2026-05-07 19:31 | 30.62894 | -78.29950 | 32995 ft | 451 kts | 3° |
| 2026-05-07 19:31 | 30.69020 | -78.28520 | 32995 ft | 452 kts | 3° |
| 2026-05-07 19:32 | 30.75199 | -78.27077 | 32986 ft | 452 kts | 4° |
| 2026-05-07 19:32 | 30.81382 | -78.25625 | 32986 ft | 453 kts | 4° |
| 2026-05-07 19:33 | 30.87540 | -78.24176 | 32984 ft | 454 kts | 4° |
| 2026-05-07 19:33 | 30.93748 | -78.22718 | 32983 ft | 454 kts | 4° |
| 2026-05-07 19:34 | 30.99955 | -78.21330 | 32980 ft | 454 kts | 3° |
| 2026-05-07 19:34 | 31.06145 | -78.19969 | 32981 ft | 455 kts | 3° |
| 2026-05-07 19:35 | 31.12372 | -78.18582 | 32971 ft | 455 kts | 3° |
| 2026-05-07 19:35 | 31.18609 | -78.17193 | 32974 ft | 455 kts | 3° |
| 2026-05-07 19:36 | 31.24840 | -78.15810 | 32969 ft | 456 kts | 3° |
| 2026-05-07 19:36 | 31.31040 | -78.14425 | 32966 ft | 456 kts | 3° |
| 2026-05-07 19:37 | 31.37284 | -78.13028 | 32966 ft | 455 kts | 3° |
| 2026-05-07 19:37 | 31.43510 | -78.11676 | 32966 ft | 453 kts | 1° |
| 2026-05-07 19:38 | 31.49735 | -78.10608 | 32960 ft | 453 kts | 1° |
| 2026-05-07 19:38 | 31.55986 | -78.09547 | 32958 ft | 454 kts | 1° |
| 2026-05-07 19:39 | 31.62204 | -78.08486 | 32959 ft | 454 kts | 1° |
| 2026-05-07 19:39 | 31.68469 | -78.07410 | 32950 ft | 454 kts | 1° |
| 2026-05-07 19:40 | 31.74731 | -78.06336 | 32950 ft | 455 kts | 1° |
| 2026-05-07 19:40 | 31.81006 | -78.05260 | 32943 ft | 455 kts | 1° |
| 2026-05-07 19:41 | 31.87281 | -78.04182 | 32939 ft | 455 kts | 1° |
| 2026-05-07 19:41 | 31.93522 | -78.03104 | 32940 ft | 456 kts | 1° |
| 2026-05-07 19:42 | 31.99795 | -78.02023 | 32941 ft | 455 kts | 1° |
| 2026-05-07 19:42 | 32.06074 | -78.00940 | 32936 ft | 456 kts | 1° |
| 2026-05-07 19:43 | 32.12311 | -77.99860 | 32936 ft | 456 kts | 1° |
| 2026-05-07 19:43 | 32.18614 | -77.98768 | 32931 ft | 457 kts | 1° |
| 2026-05-07 19:44 | 32.24918 | -77.97676 | 32936 ft | 457 kts | 1° |
| 2026-05-07 19:44 | 32.31221 | -77.96580 | 32926 ft | 457 kts | 1° |
| 2026-05-07 19:45 | 32.37475 | -77.95489 | 32923 ft | 457 kts | 1° |
| 2026-05-07 19:45 | 32.43775 | -77.94388 | 32926 ft | 457 kts | 1° |
| 2026-05-07 19:46 | 32.50080 | -77.93290 | 32918 ft | 457 kts | 1° |
| 2026-05-07 19:46 | 32.56388 | -77.92190 | 32917 ft | 458 kts | 1° |
| 2026-05-07 19:47 | 32.62696 | -77.91087 | 32917 ft | 458 kts | 1° |
| 2026-05-07 19:47 | 32.68983 | -77.89985 | 32909 ft | 459 kts | 1° |
| 2026-05-07 19:48 | 32.75322 | -77.88871 | 32908 ft | 460 kts | 1° |
| 2026-05-07 19:48 | 32.81660 | -77.87754 | 32906 ft | 460 kts | 1° |
| 2026-05-07 19:49 | 32.87972 | -77.86650 | 32906 ft | 461 kts | 0° |
| 2026-05-07 19:49 | 32.94328 | -77.85536 | 32904 ft | 461 kts | 0° |
| 2026-05-07 19:50 | 33.00694 | -77.84407 | 32897 ft | 462 kts | 0° |
| 2026-05-07 19:50 | 33.07033 | -77.83283 | 32898 ft | 463 kts | 0° |
| 2026-05-07 19:51 | 33.13367 | -77.82155 | 32892 ft | 463 kts | 360° |
| 2026-05-07 19:51 | 33.19796 | -77.81022 | 32892 ft | 463 kts | 360° |
| 2026-05-07 19:52 | 33.26136 | -77.79901 | 32886 ft | 463 kts | 360° |
| 2026-05-07 19:52 | 33.32516 | -77.78760 | 32886 ft | 463 kts | 359° |
| 2026-05-07 19:53 | 33.38892 | -77.77625 | 32887 ft | 463 kts | 359° |
| 2026-05-07 19:53 | 33.45274 | -77.76496 | 32889 ft | 462 kts | 359° |
| 2026-05-07 19:54 | 33.51600 | -77.75362 | 32887 ft | 462 kts | 359° |
| 2026-05-07 19:54 | 33.57962 | -77.74222 | 32889 ft | 462 kts | 359° |
| 2026-05-07 19:55 | 33.64332 | -77.73077 | 32885 ft | 462 kts | 359° |
| 2026-05-07 19:55 | 33.70693 | -77.71865 | 32873 ft | 464 kts | 0° |
| 2026-05-07 19:56 | 33.77055 | -77.70484 | 32876 ft | 464 kts | 0° |
| 2026-05-07 19:56 | 33.83396 | -77.69095 | 32881 ft | 463 kts | 0° |
| 2026-05-07 19:57 | 33.89746 | -77.67710 | 32879 ft | 462 kts | 0° |
| 2026-05-07 19:57 | 33.96032 | -77.66341 | 32878 ft | 461 kts | 0° |
| 2026-05-07 19:58 | 34.02358 | -77.64962 | 32875 ft | 461 kts | 0° |
| 2026-05-07 19:58 | 34.08678 | -77.63579 | 32869 ft | 461 kts | 0° |
| 2026-05-07 19:59 | 34.14971 | -77.62199 | 32865 ft | 461 kts | 0° |
| 2026-05-07 19:59 | 34.21280 | -77.60813 | 32866 ft | 461 kts | 0° |
| 2026-05-07 20:00 | 34.27601 | -77.59420 | 32870 ft | 461 kts | 0° |
| 2026-05-07 20:00 | 34.33886 | -77.58035 | 32866 ft | 462 kts | 0° |
| 2026-05-07 20:01 | 34.40233 | -77.56637 | 32864 ft | 464 kts | 0° |
| 2026-05-07 20:01 | 34.46593 | -77.55230 | 32871 ft | 464 kts | 360° |
| 2026-05-07 20:02 | 34.52931 | -77.53380 | 32861 ft | 482 kts | 12° |
| 2026-05-07 20:02 | 34.59024 | -77.49836 | 32858 ft | 491 kts | 17° |
| 2026-05-07 20:03 | 34.65154 | -77.46106 | 32852 ft | 491 kts | 17° |
| 2026-05-07 20:03 | 34.71258 | -77.42442 | 32853 ft | 492 kts | 16° |
| 2026-05-07 20:04 | 34.77415 | -77.38751 | 32859 ft | 492 kts | 16° |
| 2026-05-07 20:04 | 34.83557 | -77.35048 | 32862 ft | 494 kts | 16° |
| 2026-05-07 20:05 | 34.89741 | -77.31315 | 32874 ft | 497 kts | 15° |
| 2026-05-07 20:05 | 34.95972 | -77.27562 | 32862 ft | 500 kts | 15° |
| 2026-05-07 20:06 | 35.02218 | -77.23787 | 32838 ft | 502 kts | 15° |
| 2026-05-07 20:06 | 35.08445 | -77.20013 | 32840 ft | 502 kts | 15° |
| 2026-05-07 20:07 | 35.14710 | -77.16203 | 32838 ft | 502 kts | 15° |
| 2026-05-07 20:07 | 35.20969 | -77.12399 | 32838 ft | 502 kts | 15° |
| 2026-05-07 20:08 | 35.27229 | -77.08596 | 32846 ft | 502 kts | 15° |
| 2026-05-07 20:08 | 35.33458 | -77.04802 | 32846 ft | 503 kts | 15° |
| 2026-05-07 20:09 | 35.39726 | -77.00975 | 32843 ft | 504 kts | 15° |
| 2026-05-07 20:10 | 35.49111 | -76.95219 | 32806 ft | 500 kts | 14° |
| 2026-05-07 20:10 | 35.55345 | -76.91395 | 32820 ft | 500 kts | 14° |
| 2026-05-07 20:11 | 35.61534 | -76.87588 | 32834 ft | 500 kts | 14° |
| 2026-05-07 20:11 | 35.67787 | -76.83805 | 32834 ft | 500 kts | 14° |
| 2026-05-07 20:12 | 35.74000 | -76.80023 | 32845 ft | 500 kts | 14° |
| 2026-05-07 20:12 | 35.80238 | -76.76230 | 32877 ft | 500 kts | 14° |
| 2026-05-07 20:13 | 35.85415 | -76.73038 | 32881 ft | 500 kts | 14° |
| 2026-05-07 20:13 | 35.91651 | -76.69169 | 32881 ft | 503 kts | 16° |
| 2026-05-07 20:14 | 35.97830 | -76.65037 | 32885 ft | 504 kts | 17° |
| 2026-05-07 20:14 | 36.03944 | -76.60902 | 32887 ft | 503 kts | 17° |
| 2026-05-07 20:15 | 36.10104 | -76.56741 | 32883 ft | 504 kts | 17° |
| 2026-05-07 20:15 | 36.16270 | -76.52575 | 32882 ft | 504 kts | 17° |
| 2026-05-07 20:16 | 36.22388 | -76.48439 | 32884 ft | 504 kts | 17° |
| 2026-05-07 20:16 | 36.28543 | -76.44240 | 32881 ft | 504 kts | 17° |
| 2026-05-07 20:17 | 36.34700 | -76.40060 | 32887 ft | 504 kts | 17° |
| 2026-05-07 20:17 | 36.40816 | -76.35889 | 32883 ft | 504 kts | 17° |
| 2026-05-07 20:18 | 36.46969 | -76.31692 | 32897 ft | 504 kts | 17° |
| 2026-05-07 20:18 | 36.53118 | -76.27481 | 32889 ft | 502 kts | 17° |
| 2026-05-07 20:19 | 36.59196 | -76.23315 | 32893 ft | 502 kts | 17° |
| 2026-05-07 20:19 | 36.65323 | -76.19107 | 32892 ft | 503 kts | 17° |
| 2026-05-07 20:20 | 36.71471 | -76.14874 | 32895 ft | 505 kts | 18° |
| 2026-05-07 20:20 | 36.77659 | -76.10606 | 32881 ft | 507 kts | 18° |
| 2026-05-07 20:21 | 36.83814 | -76.06363 | 32879 ft | 509 kts | 18° |
| 2026-05-07 20:21 | 36.90021 | -76.02060 | 32874 ft | 510 kts | 18° |
| 2026-05-07 20:22 | 36.96232 | -75.97761 | 32884 ft | 510 kts | 18° |
| 2026-05-07 20:22 | 37.02432 | -75.93457 | 32880 ft | 509 kts | 18° |
| 2026-05-07 20:23 | 37.08612 | -75.89301 | 32879 ft | 498 kts | 11° |
| 2026-05-07 20:23 | 37.11824 | -75.87863 | 32885 ft | 483 kts | 2° |
| 2026-05-07 20:23 | 37.15043 | -75.86739 | 32889 ft | 480 kts | 1° |
| 2026-05-07 20:24 | 37.21502 | -75.84583 | 32893 ft | 480 kts | 1° |
| 2026-05-07 20:24 | 37.27954 | -75.82358 | 32894 ft | 480 kts | 1° |
| 2026-05-07 20:25 | 37.34360 | -75.80117 | 32896 ft | 480 kts | 1° |
| 2026-05-07 20:25 | 37.40826 | -75.77865 | 32908 ft | 486 kts | 1° |
| 2026-05-07 20:26 | 37.47382 | -75.75592 | 32906 ft | 490 kts | 1° |
| 2026-05-07 20:26 | 37.53917 | -75.73308 | 32902 ft | 490 kts | 1° |
| 2026-05-07 20:27 | 37.60499 | -75.71002 | 32908 ft | 491 kts | 1° |
| 2026-05-07 20:27 | 37.67100 | -75.68683 | 32904 ft | 492 kts | 1° |
| 2026-05-07 20:28 | 37.73697 | -75.66365 | 32906 ft | 492 kts | 1° |
| 2026-05-07 20:28 | 37.80299 | -75.64031 | 32907 ft | 492 kts | 1° |
| 2026-05-07 20:28 | 37.83588 | -75.62644 | 32904 ft | 507 kts | 9° |
| 2026-05-07 20:29 | 37.86730 | -75.60563 | 32906 ft | 525 kts | 21° |
| 2026-05-07 20:29 | 37.92793 | -75.55270 | 32910 ft | 530 kts | 25° |
| 2026-05-07 20:30 | 37.98850 | -75.49909 | 32913 ft | 529 kts | 24° |
| 2026-05-07 20:30 | 38.04922 | -75.44621 | 32908 ft | 528 kts | 23° |
| 2026-05-07 20:31 | 38.11069 | -75.39576 | 32903 ft | 526 kts | 21° |
| 2026-05-07 20:31 | 38.17240 | -75.34546 | 32896 ft | 526 kts | 21° |
| 2026-05-07 20:32 | 38.23435 | -75.29658 | 32884 ft | 516 kts | 14° |
| 2026-05-07 20:32 | 38.26635 | -75.27959 | 32885 ft | 495 kts | 2° |
| 2026-05-07 20:32 | 38.29917 | -75.26993 | 32892 ft | 477 kts | 354° |
| 2026-05-07 20:33 | 38.36512 | -75.25712 | 32904 ft | 484 kts | 353° |
| 2026-05-07 20:33 | 38.43194 | -75.24359 | 32897 ft | 487 kts | 354° |
| 2026-05-07 20:34 | 38.49815 | -75.22963 | 32894 ft | 488 kts | 354° |
| 2026-05-07 20:34 | 38.56589 | -75.21536 | 32898 ft | 490 kts | 354° |
| 2026-05-07 20:35 | 38.63343 | -75.20114 | 32899 ft | 492 kts | 354° |
| 2026-05-07 20:35 | 38.70115 | -75.18086 | 32886 ft | 520 kts | 9° |
| 2026-05-07 20:35 | 38.73336 | -75.15880 | 32893 ft | 540 kts | 22° |
| 2026-05-07 20:36 | 38.76400 | -75.12998 | 32900 ft | 548 kts | 28° |
| 2026-05-07 20:36 | 38.82355 | -75.06908 | 32893 ft | 545 kts | 29° |
| 2026-05-07 20:37 | 38.88333 | -75.00976 | 32883 ft | 542 kts | 28° |
| 2026-05-07 20:37 | 38.94323 | -74.95098 | 32894 ft | 546 kts | 28° |
| 2026-05-07 20:38 | 39.00346 | -74.89165 | 32891 ft | 549 kts | 28° |
| 2026-05-07 20:38 | 39.06376 | -74.83184 | 31829 ft | 543 kts | 28° |
| 2026-05-07 20:38 | 39.09330 | -74.80253 | 30629 ft | 551 kts | 31° |
| 2026-05-07 20:39 | 39.12336 | -74.77067 | 29751 ft | 550 kts | 32° |
| 2026-05-07 20:39 | 39.15251 | -74.73919 | 28897 ft | 543 kts | 33° |
| 2026-05-07 20:39 | 39.18114 | -74.70818 | 28128 ft | 534 kts | 33° |
| 2026-05-07 20:39 | 39.20956 | -74.67740 | 27317 ft | 528 kts | 33° |
| 2026-05-07 20:40 | 39.23720 | -74.64741 | 26531 ft | 522 kts | 34° |
| 2026-05-07 20:40 | 39.26486 | -74.61740 | 25815 ft | 514 kts | 34° |
| 2026-05-07 20:40 | 39.29213 | -74.58780 | 25073 ft | 508 kts | 34° |
| 2026-05-07 20:40 | 39.31902 | -74.55865 | 24336 ft | 503 kts | 34° |
| 2026-05-07 20:41 | 39.34561 | -74.52982 | 23682 ft | 495 kts | 35° |
| 2026-05-07 20:41 | 39.37190 | -74.50120 | 22898 ft | 490 kts | 35° |
| 2026-05-07 20:41 | 39.39774 | -74.47302 | 22242 ft | 480 kts | 35° |
| 2026-05-07 20:41 | 39.42278 | -74.44563 | 21528 ft | 474 kts | 35° |
| 2026-05-07 20:42 | 39.44778 | -74.41831 | 20863 ft | 465 kts | 35° |
| 2026-05-07 20:42 | 39.47231 | -74.39160 | 20255 ft | 456 kts | 35° |
| 2026-05-07 20:42 | 39.49643 | -74.36532 | 19557 ft | 450 kts | 35° |
| 2026-05-07 20:42 | 39.52016 | -74.33939 | 19029 ft | 440 kts | 35° |
| 2026-05-07 20:43 | 39.54322 | -74.31412 | 18589 ft | 427 kts | 35° |
| 2026-05-07 20:43 | 39.56533 | -74.28979 | 18205 ft | 416 kts | 35° |
| 2026-05-07 20:43 | 39.58733 | -74.26568 | 17807 ft | 414 kts | 35° |
| 2026-05-07 20:43 | 39.60931 | -74.24162 | 17255 ft | 413 kts | 35° |
| 2026-05-07 20:44 | 39.63119 | -74.21765 | 16777 ft | 410 kts | 35° |
| 2026-05-07 20:44 | 39.65285 | -74.19383 | 16360 ft | 405 kts | 35° |
| 2026-05-07 20:44 | 39.67413 | -74.17034 | 15987 ft | 399 kts | 36° |
| 2026-05-07 20:44 | 39.69513 | -74.14714 | 15630 ft | 393 kts | 36° |
| 2026-05-07 20:45 | 39.71583 | -74.12426 | 15280 ft | 388 kts | 36° |
| 2026-05-07 20:45 | 39.73629 | -74.10173 | 14942 ft | 382 kts | 36° |
| 2026-05-07 20:45 | 39.75640 | -74.07957 | 14644 ft | 375 kts | 36° |
| 2026-05-07 20:45 | 39.77615 | -74.05777 | 14358 ft | 371 kts | 36° |
| 2026-05-07 20:46 | 39.79553 | -74.03633 | 14062 ft | 369 kts | 36° |
| 2026-05-07 20:46 | 39.81504 | -74.01465 | 13756 ft | 368 kts | 36° |
| 2026-05-07 20:46 | 39.83453 | -73.99301 | 13411 ft | 367 kts | 34° |
| 2026-05-07 20:46 | 39.85564 | -73.97494 | 13054 ft | 360 kts | 23° |
| 2026-05-07 20:47 | 39.87763 | -73.95952 | 12718 ft | 358 kts | 22° |
| 2026-05-07 20:47 | 39.89961 | -73.94428 | 12383 ft | 357 kts | 22° |
| 2026-05-07 20:47 | 39.92145 | -73.92898 | 12048 ft | 356 kts | 22° |
| 2026-05-07 20:47 | 39.94317 | -73.91369 | 11711 ft | 354 kts | 22° |
| 2026-05-07 20:48 | 39.96482 | -73.89840 | 11381 ft | 353 kts | 22° |
| 2026-05-07 20:48 | 39.98612 | -73.88333 | 11054 ft | 352 kts | 22° |
| 2026-05-07 20:48 | 40.00785 | -73.86792 | 10717 ft | 348 kts | 22° |
| 2026-05-07 20:48 | 40.02841 | -73.85236 | 10445 ft | 342 kts | 25° |
| 2026-05-07 20:49 | 40.04840 | -73.83636 | 10269 ft | 332 kts | 25° |
| 2026-05-07 20:49 | 40.06777 | -73.82072 | 10098 ft | 322 kts | 25° |
| 2026-05-07 20:49 | 40.08674 | -73.80545 | 9723 ft | 319 kts | 25° |
| 2026-05-07 20:49 | 40.10559 | -73.79032 | 9378 ft | 315 kts | 25° |
| 2026-05-07 20:50 | 40.12397 | -73.77555 | 9038 ft | 311 kts | 25° |
| 2026-05-07 20:50 | 40.14234 | -73.76073 | 8681 ft | 307 kts | 26° |
| 2026-05-07 20:50 | 40.16039 | -73.74620 | 8378 ft | 302 kts | 26° |
| 2026-05-07 20:50 | 40.17822 | -73.73186 | 8051 ft | 298 kts | 26° |
| 2026-05-07 20:51 | 40.19577 | -73.71771 | 7725 ft | 294 kts | 26° |
| 2026-05-07 20:51 | 40.21302 | -73.70373 | 7427 ft | 289 kts | 26° |
| 2026-05-07 20:51 | 40.22978 | -73.69017 | 7111 ft | 285 kts | 27° |
| 2026-05-07 20:51 | 40.24652 | -73.67660 | 6789 ft | 281 kts | 27° |
| 2026-05-07 20:52 | 40.26305 | -73.66326 | 6490 ft | 276 kts | 27° |
| 2026-05-07 20:52 | 40.27928 | -73.65013 | 6196 ft | 272 kts | 27° |
| 2026-05-07 20:52 | 40.29549 | -73.63708 | 5880 ft | 267 kts | 28° |
| 2026-05-07 20:52 | 40.31100 | -73.62458 | 5599 ft | 264 kts | 28° |
| 2026-05-07 20:53 | 40.32661 | -73.61193 | 5321 ft | 263 kts | 28° |
| 2026-05-07 20:53 | 40.34194 | -73.59952 | 5053 ft | 261 kts | 28° |
| 2026-05-07 20:53 | 40.35736 | -73.58705 | 4780 ft | 259 kts | 28° |
| 2026-05-07 20:53 | 40.37267 | -73.57465 | 4507 ft | 257 kts | 28° |
| 2026-05-07 20:54 | 40.38805 | -73.56267 | 4223 ft | 255 kts | 24° |
| 2026-05-07 20:54 | 40.40467 | -73.55574 | 3947 ft | 249 kts | 7° |
| 2026-05-07 20:54 | 40.42178 | -73.55327 | 3673 ft | 247 kts | 3° |
| 2026-05-07 20:54 | 40.43883 | -73.55123 | 3418 ft | 245 kts | 4° |
| 2026-05-07 20:55 | 40.45577 | -73.54912 | 3162 ft | 244 kts | 4° |
| 2026-05-07 20:55 | 40.47269 | -73.54692 | 2962 ft | 246 kts | 4° |
| 2026-05-07 20:55 | 40.48924 | -73.54471 | 2928 ft | 231 kts | 4° |
| 2026-05-07 20:55 | 40.50485 | -73.54261 | 2946 ft | 222 kts | 4° |
| 2026-05-07 20:56 | 40.52027 | -73.54058 | 2966 ft | 222 kts | 2° |
| 2026-05-07 20:56 | 40.53551 | -73.54196 | 2978 ft | 219 kts | 342° |
| 2026-05-07 20:56 | 40.54870 | -73.55147 | 2841 ft | 217 kts | 316° |
| 2026-05-07 20:56 | 40.55768 | -73.56735 | 2525 ft | 217 kts | 300° |
| 2026-05-07 20:57 | 40.56494 | -73.58445 | 2211 ft | 217 kts | 299° |
| 2026-05-07 20:57 | 40.57240 | -73.60170 | 1945 ft | 217 kts | 300° |
| 2026-05-07 20:57 | 40.58019 | -73.61933 | 1935 ft | 217 kts | 300° |
| 2026-05-07 20:57 | 40.58746 | -73.63553 | 1949 ft | 201 kts | 300° |
| 2026-05-07 20:58 | 40.59411 | -73.65032 | 2009 ft | 177 kts | 300° |
| 2026-05-07 20:58 | 40.60018 | -73.66351 | 1890 ft | 164 kts | 300° |
| 2026-05-07 20:58 | 40.60576 | -73.67586 | 1644 ft | 147 kts | 300° |
| 2026-05-07 20:58 | 40.61054 | -73.68644 | 1362 ft | 131 kts | 300° |
| 2026-05-07 20:59 | 40.61524 | -73.69676 | 1108 ft | 131 kts | 300° |
| 2026-05-07 20:59 | 40.61992 | -73.70685 | 1002 ft | 131 kts | 300° |
| 2026-05-07 20:59 | 40.62455 | -73.71705 | 865 ft | 129 kts | 300° |
| 2026-05-07 20:59 | 40.62905 | -73.72723 | 697 ft | 129 kts | 302° |
| 2026-05-07 21:00 | 40.63357 | -73.73724 | 473 ft | 127 kts | 306° |
| 2026-05-07 21:00 | 40.63814 | -73.74729 | 303 ft | 129 kts | 309° |
| 2026-05-07 21:00 | 40.64282 | -73.75733 | 119 ft | 128 kts | 307° |
| 2026-05-07 21:00 | 40.64740 | -73.76729 | 24 ft | 120 kts | 301° |
| 2026-05-07 21:01 | 40.65085 | -73.77497 | 23 ft | 73 kts | 301° |
| 2026-05-07 21:01 | 40.65259 | -73.77883 | 23 ft | 34 kts | 301° |
| 2026-05-07 21:01 | 40.65313 | -73.78054 | 24 ft | 24 kts | 271° |
| 2026-05-07 21:01 | 40.65317 | -73.78277 | 22 ft | 22 kts | 284° |
| 2026-05-07 21:02 | 40.65358 | -73.78443 | 22 ft | 9 kts | 254° |
| 2026-05-07 21:02 | 40.65344 | -73.78498 | 21 ft | 10 kts | 247° |
| 2026-05-07 21:02 | 40.65308 | -73.78591 | 23 ft | 13 kts | 240° |
| 2026-05-07 21:02 | 40.65258 | -73.78700 | 24 ft | 14 kts | 238° |
| 2026-05-07 21:03 | 40.65219 | -73.78824 | 21 ft | 16 kts | 261° |
| 2026-05-07 21:03 | 40.65142 | -73.78907 | 21 ft | 17 kts | 185° |
| 2026-05-07 21:03 | 40.65043 | -73.78930 | 21 ft | 15 kts | 215° |
| 2026-05-07 21:03 | 40.64985 | -73.79054 | 22 ft | 17 kts | 239° |
| 2026-05-07 21:04 | 40.64924 | -73.79196 | 22 ft | 18 kts | 240° |
| 2026-05-07 21:04 | 40.64884 | -73.79288 | 21 ft | 10 kts | 241° |
| 2026-05-07 21:04 | 40.64847 | -73.79376 | 21 ft | 11 kts | 239° |
| 2026-05-07 21:04 | 40.64841 | -73.79432 | 21 ft | 4 kts | 319° |
| 2026-05-07 21:05 | 40.64866 | -73.79455 | 21 ft | 2 kts | 331° |
| 2026-05-07 21:05 | 40.64877 | -73.79463 | 22 ft | 1 kts | 332° |
| 2026-05-07 21:05 | 40.64887 | -73.79471 | 22 ft | 2 kts | 335° |